Main page
METAR-TAF:

METAR-TAF

Airports :

Zumbi dos Palmares International Airport

Maceió, Alagoas, Brazil

latitude: 09-31S, longitude: 035-47W, elevation: 117 m

Current weather observation

The report was made 1 hour and 7 minutes ago, at 02:00 UTC
Wind 3 kt from the South/Southeast
Temperature 22°C
Humidity 78%
Pressure 1018 hPa
Visibility 10 km or more
Few clouds at a height of 3000 ft

METAR: SBMO 240200Z 15003KT 9999 FEW030 22/18 Q1018

Time: 00:07 (03:07 UTC)

Forecast

The report was made 6 hours and 7 minutes ago, at 21:00 UTC
Forecast valid from 24 at 00 UTC to 24 at 24 UTC
Wind 5 kt from the North/Northwest
Visibility 10 km or more
Few clouds at a height of 2000 ft
Becoming
from 24 at 10 UTC to 24 at 12 UTC
Wind 10 kt from the East
Broken clouds at a height of 2000 ft
Becoming
from 24 at 14 UTC to 24 at 16 UTC
Scattered clouds at a height of 2000 ft

TAF: SBMO 232100Z 2400/2424 33005KT 9999 FEW020 TN19/2408Z TX28/2417Z BECMG 2410/2412 09010KT BKN020 BECMG 2414/2416 SCT020 RMK PEA

Weather observations and forecasts of more than 4000 airports (METAR and TAF reports).

The available stations are represented by yellow and red dots on the map.

Hover mouse over dot to see the name of the station.

Then click to see weather observations and forecasts.

To change the map : click on the green buttons with a black cross to zoom in, on the green button with a dash to zoom out, or on the green arrows for adjacent maps.


METAR-TAF: